KCSM

Clinton-Sherman Airport

Burns Flat, Oklahoma, USA
METAR KCSM 230053Z 17008KT 10SM CLR 15/11 A3014 RMK AO2 SLP201 T01500106
Observed Flight Rules
Oct-23 @ 00:53 UTC (10 minutes ago) Visual Flight Rules
Wind Visibility Clouds
170° at 8 knots 10 miles
  • Clear skies
Temperatures Readings
Current 15°C / 59°F
Dewpoint 11°C / 52°F
Humidity 77%
Altimeter 30.14" Hg
Pressure 1020.1 hPa
Elevation 588
METAR KCSM 230053Z 17008KT 10SM CLR 15/11 A3014 RMK AO2 SLP201 T01500106
Observed Flight Rules
Oct-23 @ 00:53 UTC
(10 minutes ago)
VFR
Wind Visibility
170° at 8 knots 10 miles
Clouds
  • Clear skies
Temperature Dewpoint
15°C / 59°F 11°C / 52°F
Humidity Altimeter Pressure
77% 30.14" Hg 1020.1 hPa